sensor_id;sensor_type;location;lat;lon;timestamp;P1;durP1;ratioP1;P2;durP2;ratioP2
31482;SDS011;18103;52.246;8.052;2024-01-16T00:01:34;0.50;;;0.50;;
31482;SDS011;18103;52.246;8.052;2024-01-16T00:04:00;10.50;;;0.73;;
31482;SDS011;18103;52.246;8.052;2024-01-16T00:06:25;1.23;;;0.83;;
31482;SDS011;18103;52.246;8.052;2024-01-16T00:08:53;3.47;;;1.37;;
31482;SDS011;18103;52.246;8.052;2024-01-16T00:11:18;0.37;;;0.37;;
31482;SDS011;18103;52.246;8.052;2024-01-16T00:13:43;0.80;;;0.53;;
31482;SDS011;18103;52.246;8.052;2024-01-16T00:16:09;2.20;;;0.60;;
31482;SDS011;18103;52.246;8.052;2024-01-16T00:18:34;1.60;;;0.40;;
31482;SDS011;18103;52.246;8.052;2024-01-16T00:21:11;0.50;;;0.50;;
31482;SDS011;18103;52.246;8.052;2024-01-16T00:23:58;0.67;;;0.53;;
31482;SDS011;18103;52.246;8.052;2024-01-16T00:26:28;0.50;;;0.30;;
31482;SDS011;18103;52.246;8.052;2024-01-16T00:28:58;1.43;;;0.27;;
31482;SDS011;18103;52.246;8.052;2024-01-16T00:31:23;0.87;;;0.50;;
31482;SDS011;18103;52.246;8.052;2024-01-16T00:33:49;12.70;;;0.67;;
31482;SDS011;18103;52.246;8.052;2024-01-16T00:36:14;1.27;;;0.37;;
31482;SDS011;18103;52.246;8.052;2024-01-16T00:38:40;1.40;;;0.40;;
31482;SDS011;18103;52.246;8.052;2024-01-16T00:41:07;0.17;;;0.17;;
31482;SDS011;18103;52.246;8.052;2024-01-16T00:43:35;0.87;;;0.40;;
31482;SDS011;18103;52.246;8.052;2024-01-16T00:46:02;2.73;;;0.60;;
31482;SDS011;18103;52.246;8.052;2024-01-16T00:48:32;0.40;;;0.23;;
31482;SDS011;18103;52.246;8.052;2024-01-16T00:51:00;2.70;;;0.70;;
31482;SDS011;18103;52.246;8.052;2024-01-16T00:53:31;0.47;;;0.47;;
31482;SDS011;18103;52.246;8.052;2024-01-16T00:55:56;0.53;;;0.53;;
31482;SDS011;18103;52.246;8.052;2024-01-16T00:58:40;0.47;;;0.27;;
31482;SDS011;18103;52.246;8.052;2024-01-16T01:03:51;3.00;;;0.63;;
31482;SDS011;18103;52.246;8.052;2024-01-16T01:06:19;1.33;;;0.60;;
31482;SDS011;18103;52.246;8.052;2024-01-16T01:08:47;1.87;;;0.50;;
31482;SDS011;18103;52.246;8.052;2024-01-16T01:11:12;1.23;;;0.90;;
31482;SDS011;18103;52.246;8.052;2024-01-16T01:13:40;0.20;;;0.20;;
31482;SDS011;18103;52.246;8.052;2024-01-16T01:16:05;2.63;;;0.50;;
31482;SDS011;18103;52.246;8.052;2024-01-16T01:18:33;6.23;;;0.60;;
31482;SDS011;18103;52.246;8.052;2024-01-16T01:21:01;7.73;;;0.57;;
31482;SDS011;18103;52.246;8.052;2024-01-16T01:23:28;0.40;;;0.40;;
31482;SDS011;18103;52.246;8.052;2024-01-16T01:25:54;2.17;;;0.50;;
31482;SDS011;18103;52.246;8.052;2024-01-16T01:28:19;1.40;;;0.63;;
31482;SDS011;18103;52.246;8.052;2024-01-16T01:30:47;1.07;;;0.63;;
31482;SDS011;18103;52.246;8.052;2024-01-16T01:33:13;1.17;;;0.77;;
31482;SDS011;18103;52.246;8.052;2024-01-16T01:35:38;5.27;;;1.00;;
31482;SDS011;18103;52.246;8.052;2024-01-16T01:38:08;7.73;;;0.70;;
31482;SDS011;18103;52.246;8.052;2024-01-16T01:40:36;3.77;;;1.17;;
31482;SDS011;18103;52.246;8.052;2024-01-16T01:43:20;6.57;;;1.47;;
31482;SDS011;18103;52.246;8.052;2024-01-16T01:45:47;0.97;;;0.40;;
31482;SDS011;18103;52.246;8.052;2024-01-16T01:48:26;6.07;;;0.77;;
31482;SDS011;18103;52.246;8.052;2024-01-16T01:50:52;14.13;;;1.27;;
31482;SDS011;18103;52.246;8.052;2024-01-16T01:53:20;5.73;;;1.00;;
31482;SDS011;18103;52.246;8.052;2024-01-16T01:55:48;0.90;;;0.60;;
31482;SDS011;18103;52.246;8.052;2024-01-16T01:58:16;4.40;;;0.90;;
31482;SDS011;18103;52.246;8.052;2024-01-16T02:00:42;2.57;;;0.60;;
31482;SDS011;18103;52.246;8.052;2024-01-16T02:03:10;7.27;;;1.10;;
31482;SDS011;18103;52.246;8.052;2024-01-16T02:05:38;4.63;;;0.60;;
31482;SDS011;18103;52.246;8.052;2024-01-16T02:08:06;19.43;;;1.30;;
31482;SDS011;18103;52.246;8.052;2024-01-16T02:10:36;2.97;;;1.50;;
31482;SDS011;18103;52.246;8.052;2024-01-16T02:13:06;4.60;;;0.97;;
31482;SDS011;18103;52.246;8.052;2024-01-16T02:15:34;6.63;;;2.10;;
31482;SDS011;18103;52.246;8.052;2024-01-16T02:17:59;6.50;;;1.43;;
31482;SDS011;18103;52.246;8.052;2024-01-16T02:20:29;13.20;;;2.17;;
31482;SDS011;18103;52.246;8.052;2024-01-16T02:22:55;1.83;;;1.10;;
31482;SDS011;18103;52.246;8.052;2024-01-16T02:25:25;5.67;;;1.43;;
31482;SDS011;18103;52.246;8.052;2024-01-16T02:27:52;4.53;;;0.73;;
31482;SDS011;18103;52.246;8.052;2024-01-16T02:30:18;1.67;;;1.20;;
31482;SDS011;18103;52.246;8.052;2024-01-16T02:32:43;3.43;;;1.27;;
31482;SDS011;18103;52.246;8.052;2024-01-16T02:35:08;7.73;;;1.20;;
31482;SDS011;18103;52.246;8.052;2024-01-16T02:37:35;3.53;;;0.77;;
31482;SDS011;18103;52.246;8.052;2024-01-16T02:40:03;0.97;;;0.60;;
31482;SDS011;18103;52.246;8.052;2024-01-16T02:42:31;2.53;;;1.00;;
31482;SDS011;18103;52.246;8.052;2024-01-16T02:44:59;6.83;;;1.73;;
31482;SDS011;18103;52.246;8.052;2024-01-16T02:47:28;3.83;;;1.47;;
31482;SDS011;18103;52.246;8.052;2024-01-16T02:49:56;4.90;;;1.37;;
31482;SDS011;18103;52.246;8.052;2024-01-16T02:52:22;2.70;;;0.67;;
31482;SDS011;18103;52.246;8.052;2024-01-16T02:54:47;3.60;;;1.37;;
31482;SDS011;18103;52.246;8.052;2024-01-16T02:57:13;5.30;;;1.80;;
31482;SDS011;18103;52.246;8.052;2024-01-16T02:59:43;6.20;;;1.03;;
31482;SDS011;18103;52.246;8.052;2024-01-16T03:02:11;0.40;;;0.40;;
31482;SDS011;18103;52.246;8.052;2024-01-16T03:04:37;5.10;;;1.33;;
31482;SDS011;18103;52.246;8.052;2024-01-16T03:07:02;5.33;;;1.30;;
31482;SDS011;18103;52.246;8.052;2024-01-16T03:09:28;8.83;;;1.23;;
31482;SDS011;18103;52.246;8.052;2024-01-16T03:11:53;10.23;;;1.53;;
31482;SDS011;18103;52.246;8.052;2024-01-16T03:14:19;8.23;;;1.20;;
31482;SDS011;18103;52.246;8.052;2024-01-16T03:16:45;5.30;;;1.10;;
31482;SDS011;18103;52.246;8.052;2024-01-16T03:19:15;2.10;;;0.90;;
31482;SDS011;18103;52.246;8.052;2024-01-16T03:21:42;4.63;;;1.77;;
31482;SDS011;18103;52.246;8.052;2024-01-16T03:24:10;4.17;;;1.20;;
31482;SDS011;18103;52.246;8.052;2024-01-16T03:26:36;5.93;;;0.80;;
31482;SDS011;18103;52.246;8.052;2024-01-16T03:29:02;0.70;;;0.70;;
31482;SDS011;18103;52.246;8.052;2024-01-16T03:31:31;6.17;;;1.27;;
31482;SDS011;18103;52.246;8.052;2024-01-16T03:33:56;5.73;;;1.17;;
31482;SDS011;18103;52.246;8.052;2024-01-16T03:36:24;4.90;;;1.07;;
31482;SDS011;18103;52.246;8.052;2024-01-16T03:38:49;8.93;;;0.80;;
31482;SDS011;18103;52.246;8.052;2024-01-16T03:41:15;3.83;;;1.20;;
31482;SDS011;18103;52.246;8.052;2024-01-16T03:43:42;6.93;;;2.37;;
31482;SDS011;18103;52.246;8.052;2024-01-16T03:46:13;11.30;;;1.67;;
31482;SDS011;18103;52.246;8.052;2024-01-16T03:48:41;5.13;;;1.73;;
31482;SDS011;18103;52.246;8.052;2024-01-16T03:51:07;7.77;;;2.33;;
31482;SDS011;18103;52.246;8.052;2024-01-16T03:53:32;8.13;;;2.20;;
31482;SDS011;18103;52.246;8.052;2024-01-16T03:56:00;9.20;;;1.43;;
31482;SDS011;18103;52.246;8.052;2024-01-16T03:58:28;1.20;;;0.77;;
31482;SDS011;18103;52.246;8.052;2024-01-16T04:00:56;3.20;;;0.87;;
31482;SDS011;18103;52.246;8.052;2024-01-16T04:03:21;8.63;;;1.40;;
31482;SDS011;18103;52.246;8.052;2024-01-16T04:05:47;4.60;;;1.80;;
31482;SDS011;18103;52.246;8.052;2024-01-16T04:08:13;3.17;;;1.53;;
31482;SDS011;18103;52.246;8.052;2024-01-16T04:10:38;4.37;;;1.37;;
31482;SDS011;18103;52.246;8.052;2024-01-16T04:13:07;5.27;;;1.53;;
31482;SDS011;18103;52.246;8.052;2024-01-16T04:15:32;8.60;;;1.73;;
31482;SDS011;18103;52.246;8.052;2024-01-16T04:17:58;2.50;;;1.30;;
31482;SDS011;18103;52.246;8.052;2024-01-16T04:20:23;1.63;;;1.13;;
31482;SDS011;18103;52.246;8.052;2024-01-16T04:22:48;5.53;;;1.93;;
31482;SDS011;18103;52.246;8.052;2024-01-16T04:25:17;12.83;;;2.10;;
31482;SDS011;18103;52.246;8.052;2024-01-16T04:27:45;6.97;;;1.80;;
31482;SDS011;18103;52.246;8.052;2024-01-16T04:30:15;2.90;;;1.57;;
31482;SDS011;18103;52.246;8.052;2024-01-16T04:32:42;11.77;;;2.53;;
31482;SDS011;18103;52.246;8.052;2024-01-16T04:35:08;6.90;;;2.47;;
31482;SDS011;18103;52.246;8.052;2024-01-16T04:37:36;3.73;;;1.53;;
31482;SDS011;18103;52.246;8.052;2024-01-16T04:40:01;6.17;;;1.77;;
31482;SDS011;18103;52.246;8.052;2024-01-16T04:42:27;7.20;;;2.10;;
31482;SDS011;18103;52.246;8.052;2024-01-16T04:44:55;7.53;;;2.60;;
31482;SDS011;18103;52.246;8.052;2024-01-16T04:47:20;13.10;;;1.33;;
31482;SDS011;18103;52.246;8.052;2024-01-16T04:49:48;3.60;;;2.13;;
31482;SDS011;18103;52.246;8.052;2024-01-16T04:52:15;5.27;;;1.87;;
31482;SDS011;18103;52.246;8.052;2024-01-16T04:54:43;8.37;;;1.63;;
31482;SDS011;18103;52.246;8.052;2024-01-16T04:57:11;2.47;;;1.90;;
31482;SDS011;18103;52.246;8.052;2024-01-16T04:59:38;16.73;;;1.90;;
31482;SDS011;18103;52.246;8.052;2024-01-16T05:02:04;13.83;;;2.60;;
31482;SDS011;18103;52.246;8.052;2024-01-16T05:04:31;3.50;;;2.37;;
31482;SDS011;18103;52.246;8.052;2024-01-16T05:06:57;4.27;;;2.03;;
31482;SDS011;18103;52.246;8.052;2024-01-16T05:09:22;4.53;;;1.93;;
31482;SDS011;18103;52.246;8.052;2024-01-16T05:11:47;8.07;;;1.83;;
31482;SDS011;18103;52.246;8.052;2024-01-16T05:14:15;7.83;;;2.20;;
31482;SDS011;18103;52.246;8.052;2024-01-16T05:16:41;4.37;;;2.63;;
31482;SDS011;18103;52.246;8.052;2024-01-16T05:19:06;7.37;;;2.13;;
31482;SDS011;18103;52.246;8.052;2024-01-16T05:21:33;5.87;;;2.57;;
31482;SDS011;18103;52.246;8.052;2024-01-16T05:23:59;5.90;;;2.87;;
31482;SDS011;18103;52.246;8.052;2024-01-16T05:26:27;1.50;;;1.17;;
31482;SDS011;18103;52.246;8.052;2024-01-16T05:28:52;4.57;;;1.67;;
31482;SDS011;18103;52.246;8.052;2024-01-16T05:31:20;7.63;;;2.00;;
31482;SDS011;18103;52.246;8.052;2024-01-16T05:33:50;3.80;;;2.37;;
31482;SDS011;18103;52.246;8.052;2024-01-16T05:36:16;3.83;;;2.13;;
31482;SDS011;18103;52.246;8.052;2024-01-16T05:38:41;3.20;;;1.77;;
31482;SDS011;18103;52.246;8.052;2024-01-16T05:41:09;9.37;;;3.27;;
31482;SDS011;18103;52.246;8.052;2024-01-16T05:43:36;4.27;;;2.70;;
31482;SDS011;18103;52.246;8.052;2024-01-16T05:46:04;9.70;;;2.50;;
31482;SDS011;18103;52.246;8.052;2024-01-16T05:48:32;2.63;;;1.97;;
31482;SDS011;18103;52.246;8.052;2024-01-16T05:50:59;11.77;;;3.77;;
31482;SDS011;18103;52.246;8.052;2024-01-16T05:53:25;8.10;;;2.83;;
31482;SDS011;18103;52.246;8.052;2024-01-16T05:55:53;10.40;;;2.83;;
31482;SDS011;18103;52.246;8.052;2024-01-16T05:58:19;5.00;;;2.53;;
31482;SDS011;18103;52.246;8.052;2024-01-16T06:00:44;3.70;;;2.20;;
31482;SDS011;18103;52.246;8.052;2024-01-16T06:03:12;11.80;;;2.80;;
31482;SDS011;18103;52.246;8.052;2024-01-16T06:05:38;8.13;;;3.10;;
31482;SDS011;18103;52.246;8.052;2024-01-16T06:08:05;13.83;;;3.50;;
31482;SDS011;18103;52.246;8.052;2024-01-16T06:10:31;23.40;;;4.17;;
31482;SDS011;18103;52.246;8.052;2024-01-16T06:12:56;8.20;;;2.67;;
31482;SDS011;18103;52.246;8.052;2024-01-16T06:15:24;8.17;;;3.53;;
31482;SDS011;18103;52.246;8.052;2024-01-16T06:17:51;3.80;;;2.13;;
31482;SDS011;18103;52.246;8.052;2024-01-16T06:20:17;9.33;;;2.77;;
31482;SDS011;18103;52.246;8.052;2024-01-16T06:22:42;9.20;;;3.93;;
31482;SDS011;18103;52.246;8.052;2024-01-16T06:25:10;5.73;;;3.47;;
31482;SDS011;18103;52.246;8.052;2024-01-16T06:27:40;16.50;;;3.93;;
31482;SDS011;18103;52.246;8.052;2024-01-16T06:30:08;8.53;;;3.63;;
31482;SDS011;18103;52.246;8.052;2024-01-16T06:32:34;8.53;;;3.50;;
31482;SDS011;18103;52.246;8.052;2024-01-16T06:35:00;5.90;;;2.27;;
31482;SDS011;18103;52.246;8.052;2024-01-16T06:37:28;6.77;;;2.17;;
31482;SDS011;18103;52.246;8.052;2024-01-16T06:39:53;9.40;;;3.40;;
31482;SDS011;18103;52.246;8.052;2024-01-16T06:42:18;6.23;;;2.23;;
31482;SDS011;18103;52.246;8.052;2024-01-16T06:44:44;8.50;;;4.17;;
31482;SDS011;18103;52.246;8.052;2024-01-16T06:47:12;9.60;;;4.47;;
31482;SDS011;18103;52.246;8.052;2024-01-16T06:49:38;11.37;;;3.13;;
31482;SDS011;18103;52.246;8.052;2024-01-16T06:52:06;8.07;;;3.37;;
31482;SDS011;18103;52.246;8.052;2024-01-16T06:54:33;8.93;;;2.33;;
31482;SDS011;18103;52.246;8.052;2024-01-16T06:56:58;9.87;;;4.27;;
31482;SDS011;18103;52.246;8.052;2024-01-16T06:59:26;11.77;;;4.00;;
31482;SDS011;18103;52.246;8.052;2024-01-16T07:01:51;2.70;;;2.20;;
31482;SDS011;18103;52.246;8.052;2024-01-16T07:04:20;7.03;;;3.40;;
31482;SDS011;18103;52.246;8.052;2024-01-16T07:06:50;6.80;;;3.60;;
31482;SDS011;18103;52.246;8.052;2024-01-16T07:09:15;5.63;;;2.80;;
31482;SDS011;18103;52.246;8.052;2024-01-16T07:11:45;2.87;;;2.13;;
31482;SDS011;18103;52.246;8.052;2024-01-16T07:14:10;7.90;;;3.20;;
31482;SDS011;18103;52.246;8.052;2024-01-16T07:16:36;4.23;;;2.10;;
31482;SDS011;18103;52.246;8.052;2024-01-16T07:19:02;6.47;;;3.50;;
31482;SDS011;18103;52.246;8.052;2024-01-16T07:21:30;8.27;;;3.87;;
31482;SDS011;18103;52.246;8.052;2024-01-16T07:23:58;8.70;;;4.05;;
31482;SDS011;18103;52.246;8.052;2024-01-16T07:26:24;8.43;;;3.50;;
31482;SDS011;18103;52.246;8.052;2024-01-16T07:28:49;4.90;;;2.97;;
31482;SDS011;18103;52.246;8.052;2024-01-16T07:31:20;8.27;;;4.60;;
31482;SDS011;18103;52.246;8.052;2024-01-16T07:33:46;12.67;;;4.37;;
31482;SDS011;18103;52.246;8.052;2024-01-16T07:36:11;6.93;;;4.30;;
31482;SDS011;18103;52.246;8.052;2024-01-16T07:38:37;7.43;;;3.10;;
31482;SDS011;18103;52.246;8.052;2024-01-16T07:41:02;7.50;;;3.47;;
31482;SDS011;18103;52.246;8.052;2024-01-16T07:43:28;6.77;;;3.60;;
31482;SDS011;18103;52.246;8.052;2024-01-16T07:45:54;5.40;;;1.67;;
31482;SDS011;18103;52.246;8.052;2024-01-16T07:48:20;9.73;;;3.10;;
31482;SDS011;18103;52.246;8.052;2024-01-16T07:50:50;6.70;;;3.60;;
31482;SDS011;18103;52.246;8.052;2024-01-16T07:53:15;13.33;;;4.00;;
31482;SDS011;18103;52.246;8.052;2024-01-16T07:55:41;10.10;;;4.57;;
31482;SDS011;18103;52.246;8.052;2024-01-16T07:58:07;11.60;;;4.00;;
31482;SDS011;18103;52.246;8.052;2024-01-16T08:00:35;9.53;;;2.23;;
31482;SDS011;18103;52.246;8.052;2024-01-16T08:03:03;9.57;;;3.55;;
31482;SDS011;18103;52.246;8.052;2024-01-16T08:05:31;10.27;;;4.10;;
31482;SDS011;18103;52.246;8.052;2024-01-16T08:08:02;5.67;;;2.87;;
31482;SDS011;18103;52.246;8.052;2024-01-16T08:10:32;6.03;;;3.47;;
31482;SDS011;18103;52.246;8.052;2024-01-16T08:12:57;2.50;;;1.33;;
31482;SDS011;18103;52.246;8.052;2024-01-16T08:15:22;8.57;;;2.97;;
31482;SDS011;18103;52.246;8.052;2024-01-16T08:17:53;8.87;;;3.97;;
31482;SDS011;18103;52.246;8.052;2024-01-16T08:20:20;6.27;;;3.30;;
31482;SDS011;18103;52.246;8.052;2024-01-16T08:22:45;7.30;;;4.00;;
31482;SDS011;18103;52.246;8.052;2024-01-16T08:25:11;7.93;;;2.37;;
31482;SDS011;18103;52.246;8.052;2024-01-16T08:27:36;4.93;;;2.53;;
31482;SDS011;18103;52.246;8.052;2024-01-16T08:30:02;3.67;;;1.80;;
31482;SDS011;18103;52.246;8.052;2024-01-16T08:32:29;6.20;;;2.80;;
31482;SDS011;18103;52.246;8.052;2024-01-16T08:34:56;5.68;;;2.50;;
31482;SDS011;18103;52.246;8.052;2024-01-16T08:37:21;8.93;;;3.07;;
31482;SDS011;18103;52.246;8.052;2024-01-16T08:39:50;4.07;;;3.20;;
31482;SDS011;18103;52.246;8.052;2024-01-16T08:42:15;2.53;;;1.50;;
31482;SDS011;18103;52.246;8.052;2024-01-16T08:44:42;8.00;;;3.17;;
31482;SDS011;18103;52.246;8.052;2024-01-16T08:47:10;3.73;;;1.33;;
31482;SDS011;18103;52.246;8.052;2024-01-16T08:49:35;5.97;;;2.80;;
31482;SDS011;18103;52.246;8.052;2024-01-16T08:52:03;8.73;;;2.67;;
31482;SDS011;18103;52.246;8.052;2024-01-16T08:54:31;11.23;;;2.67;;
31482;SDS011;18103;52.246;8.052;2024-01-16T08:56:58;14.50;;;2.97;;
31482;SDS011;18103;52.246;8.052;2024-01-16T08:59:24;7.00;;;2.77;;
31482;SDS011;18103;52.246;8.052;2024-01-16T09:01:53;10.77;;;3.30;;
31482;SDS011;18103;52.246;8.052;2024-01-16T09:04:21;4.53;;;2.58;;
31482;SDS011;18103;52.246;8.052;2024-01-16T09:06:48;10.13;;;2.97;;
31482;SDS011;18103;52.246;8.052;2024-01-16T09:09:14;4.47;;;1.97;;
31482;SDS011;18103;52.246;8.052;2024-01-16T09:11:41;10.25;;;3.20;;
31482;SDS011;18103;52.246;8.052;2024-01-16T09:14:07;8.03;;;2.37;;
31482;SDS011;18103;52.246;8.052;2024-01-16T09:16:32;6.13;;;2.97;;
31482;SDS011;18103;52.246;8.052;2024-01-16T09:18:58;4.30;;;2.37;;
31482;SDS011;18103;52.246;8.052;2024-01-16T09:21:23;5.53;;;3.27;;
31482;SDS011;18103;52.246;8.052;2024-01-16T09:23:48;7.97;;;2.43;;
31482;SDS011;18103;52.246;8.052;2024-01-16T09:26:14;19.37;;;2.37;;
31482;SDS011;18103;52.246;8.052;2024-01-16T09:28:42;4.87;;;2.37;;
31482;SDS011;18103;52.246;8.052;2024-01-16T09:31:08;9.98;;;3.38;;
31482;SDS011;18103;52.246;8.052;2024-01-16T09:33:34;11.57;;;4.47;;
31482;SDS011;18103;52.246;8.052;2024-01-16T09:36:01;5.00;;;3.13;;
31482;SDS011;18103;52.246;8.052;2024-01-16T09:38:27;4.27;;;2.63;;
31482;SDS011;18103;52.246;8.052;2024-01-16T09:40:56;5.23;;;2.90;;
31482;SDS011;18103;52.246;8.052;2024-01-16T09:43:23;4.10;;;2.27;;
31482;SDS011;18103;52.246;8.052;2024-01-16T09:45:50;13.77;;;2.23;;
31482;SDS011;18103;52.246;8.052;2024-01-16T09:48:16;4.20;;;1.50;;
31482;SDS011;18103;52.246;8.052;2024-01-16T09:50:44;3.10;;;1.87;;
31482;SDS011;18103;52.246;8.052;2024-01-16T09:53:10;15.87;;;2.90;;
31482;SDS011;18103;52.246;8.052;2024-01-16T09:55:38;2.60;;;2.17;;
31482;SDS011;18103;52.246;8.052;2024-01-16T09:58:06;8.40;;;3.80;;
31482;SDS011;18103;52.246;8.052;2024-01-16T10:00:40;9.43;;;3.73;;
31482;SDS011;18103;52.246;8.052;2024-01-16T10:03:08;14.77;;;3.67;;
31482;SDS011;18103;52.246;8.052;2024-01-16T10:05:37;6.43;;;1.73;;
31482;SDS011;18103;52.246;8.052;2024-01-16T10:08:05;7.50;;;2.57;;
31482;SDS011;18103;52.246;8.052;2024-01-16T10:10:30;2.23;;;1.40;;
31482;SDS011;18103;52.246;8.052;2024-01-16T10:12:56;3.90;;;1.90;;
31482;SDS011;18103;52.246;8.052;2024-01-16T10:15:24;5.27;;;1.80;;
31482;SDS011;18103;52.246;8.052;2024-01-16T10:17:57;6.47;;;2.67;;
31482;SDS011;18103;52.246;8.052;2024-01-16T10:20:34;9.33;;;3.30;;
31482;SDS011;18103;52.246;8.052;2024-01-16T10:23:00;4.13;;;2.50;;
31482;SDS011;18103;52.246;8.052;2024-01-16T10:25:25;6.30;;;3.10;;
31482;SDS011;18103;52.246;8.052;2024-01-16T10:28:03;13.70;;;2.33;;
31482;SDS011;18103;52.246;8.052;2024-01-16T10:30:29;3.77;;;1.83;;
31482;SDS011;18103;52.246;8.052;2024-01-16T10:33:12;5.60;;;3.10;;
31482;SDS011;18103;52.246;8.052;2024-01-16T10:35:39;3.57;;;2.53;;
31482;SDS011;18103;52.246;8.052;2024-01-16T10:38:07;4.67;;;2.57;;
31482;SDS011;18103;52.246;8.052;2024-01-16T10:40:35;9.13;;;2.83;;
31482;SDS011;18103;52.246;8.052;2024-01-16T10:43:04;11.23;;;3.70;;
31482;SDS011;18103;52.246;8.052;2024-01-16T10:45:30;10.77;;;2.87;;
31482;SDS011;18103;52.246;8.052;2024-01-16T10:48:06;9.33;;;2.90;;
31482;SDS011;18103;52.246;8.052;2024-01-16T10:50:37;17.13;;;4.10;;
31482;SDS011;18103;52.246;8.052;2024-01-16T10:53:04;6.93;;;3.83;;
31482;SDS011;18103;52.246;8.052;2024-01-16T10:55:33;10.30;;;4.13;;
31482;SDS011;18103;52.246;8.052;2024-01-16T10:58:14;7.50;;;2.33;;
31482;SDS011;18103;52.246;8.052;2024-01-16T11:00:42;6.37;;;3.50;;
31482;SDS011;18103;52.246;8.052;2024-01-16T11:06:05;8.37;;;2.57;;
31482;SDS011;18103;52.246;8.052;2024-01-16T11:08:33;17.13;;;5.37;;
31482;SDS011;18103;52.246;8.052;2024-01-16T11:11:01;5.70;;;3.37;;
31482;SDS011;18103;52.246;8.052;2024-01-16T11:13:30;11.37;;;4.53;;
31482;SDS011;18103;52.246;8.052;2024-01-16T11:15:58;13.13;;;4.17;;
31482;SDS011;18103;52.246;8.052;2024-01-16T11:18:27;9.77;;;5.23;;
31482;SDS011;18103;52.246;8.052;2024-01-16T11:20:55;9.37;;;5.60;;
31482;SDS011;18103;52.246;8.052;2024-01-16T11:23:21;9.10;;;4.73;;
31482;SDS011;18103;52.246;8.052;2024-01-16T11:25:47;16.17;;;5.90;;
31482;SDS011;18103;52.246;8.052;2024-01-16T11:28:15;9.93;;;4.80;;
31482;SDS011;18103;52.246;8.052;2024-01-16T11:30:41;18.63;;;5.50;;
31482;SDS011;18103;52.246;8.052;2024-01-16T11:33:41;10.43;;;5.93;;
31482;SDS011;18103;52.246;8.052;2024-01-16T11:36:19;12.90;;;5.90;;
31482;SDS011;18103;52.246;8.052;2024-01-16T11:39:07;7.77;;;3.93;;
31482;SDS011;18103;52.246;8.052;2024-01-16T11:41:48;9.73;;;5.37;;
31482;SDS011;18103;52.246;8.052;2024-01-16T11:47:02;12.73;;;6.10;;
31482;SDS011;18103;52.246;8.052;2024-01-16T11:49:31;15.47;;;6.57;;
31482;SDS011;18103;52.246;8.052;2024-01-16T11:52:01;9.20;;;5.93;;
31482;SDS011;18103;52.246;8.052;2024-01-16T11:54:27;16.00;;;3.53;;
31482;SDS011;18103;52.246;8.052;2024-01-16T12:00:01;16.90;;;5.60;;
31482;SDS011;18103;52.246;8.052;2024-01-16T12:05:38;11.93;;;4.27;;
31482;SDS011;18103;52.246;8.052;2024-01-16T12:08:04;13.73;;;4.20;;
31482;SDS011;18103;52.246;8.052;2024-01-16T12:10:31;14.63;;;5.23;;
31482;SDS011;18103;52.246;8.052;2024-01-16T12:13:12;10.63;;;4.83;;
31482;SDS011;18103;52.246;8.052;2024-01-16T12:15:40;12.53;;;6.03;;
31482;SDS011;18103;52.246;8.052;2024-01-16T12:18:08;10.03;;;4.73;;
31482;SDS011;18103;52.246;8.052;2024-01-16T12:20:36;15.10;;;4.60;;
31482;SDS011;18103;52.246;8.052;2024-01-16T12:23:05;14.00;;;5.17;;
31482;SDS011;18103;52.246;8.052;2024-01-16T12:25:36;8.07;;;4.50;;
31482;SDS011;18103;52.246;8.052;2024-01-16T12:28:03;8.70;;;4.37;;
31482;SDS011;18103;52.246;8.052;2024-01-16T12:30:31;9.10;;;3.73;;
31482;SDS011;18103;52.246;8.052;2024-01-16T12:33:07;6.93;;;3.73;;
31482;SDS011;18103;52.246;8.052;2024-01-16T12:35:34;8.13;;;3.90;;
31482;SDS011;18103;52.246;8.052;2024-01-16T12:38:00;19.50;;;4.97;;
31482;SDS011;18103;52.246;8.052;2024-01-16T12:40:30;13.50;;;5.00;;
31482;SDS011;18103;52.246;8.052;2024-01-16T12:43:00;10.70;;;4.33;;
31482;SDS011;18103;52.246;8.052;2024-01-16T12:45:27;16.27;;;4.60;;
31482;SDS011;18103;52.246;8.052;2024-01-16T12:47:54;13.30;;;4.23;;
31482;SDS011;18103;52.246;8.052;2024-01-16T12:50:26;6.80;;;3.73;;
31482;SDS011;18103;52.246;8.052;2024-01-16T12:53:05;11.43;;;4.63;;
31482;SDS011;18103;52.246;8.052;2024-01-16T12:55:36;9.00;;;3.80;;
31482;SDS011;18103;52.246;8.052;2024-01-16T12:58:12;4.80;;;2.83;;
31482;SDS011;18103;52.246;8.052;2024-01-16T13:00:40;14.60;;;3.40;;
31482;SDS011;18103;52.246;8.052;2024-01-16T13:03:06;11.60;;;3.73;;
31482;SDS011;18103;52.246;8.052;2024-01-16T13:05:31;15.80;;;4.00;;
31482;SDS011;18103;52.246;8.052;2024-01-16T13:08:03;7.63;;;3.73;;
31482;SDS011;18103;52.246;8.052;2024-01-16T13:10:28;11.13;;;3.83;;
31482;SDS011;18103;52.246;8.052;2024-01-16T13:13:13;17.23;;;4.50;;
31482;SDS011;18103;52.246;8.052;2024-01-16T13:15:44;5.20;;;2.80;;
31482;SDS011;18103;52.246;8.052;2024-01-16T13:18:18;5.53;;;2.37;;
31482;SDS011;18103;52.246;8.052;2024-01-16T13:20:48;10.63;;;4.07;;
31482;SDS011;18103;52.246;8.052;2024-01-16T13:23:17;15.30;;;4.07;;
31482;SDS011;18103;52.246;8.052;2024-01-16T13:25:43;11.10;;;3.60;;
31482;SDS011;18103;52.246;8.052;2024-01-16T13:28:16;8.10;;;3.70;;
31482;SDS011;18103;52.246;8.052;2024-01-16T13:30:43;7.63;;;2.80;;
31482;SDS011;18103;52.246;8.052;2024-01-16T13:33:09;8.37;;;2.90;;
31482;SDS011;18103;52.246;8.052;2024-01-16T13:35:35;8.17;;;3.17;;
31482;SDS011;18103;52.246;8.052;2024-01-16T13:38:02;10.88;;;2.65;;
31482;SDS011;18103;52.246;8.052;2024-01-16T13:40:29;3.20;;;2.27;;
31482;SDS011;18103;52.246;8.052;2024-01-16T13:42:57;7.07;;;2.70;;
31482;SDS011;18103;52.246;8.052;2024-01-16T13:45:22;10.37;;;2.80;;
31482;SDS011;18103;52.246;8.052;2024-01-16T13:47:48;7.87;;;3.30;;
31482;SDS011;18103;52.246;8.052;2024-01-16T13:50:14;8.10;;;3.80;;
31482;SDS011;18103;52.246;8.052;2024-01-16T13:52:39;6.60;;;3.30;;
31482;SDS011;18103;52.246;8.052;2024-01-16T13:55:05;13.37;;;3.30;;
31482;SDS011;18103;52.246;8.052;2024-01-16T13:57:31;10.97;;;3.77;;
31482;SDS011;18103;52.246;8.052;2024-01-16T14:00:06;7.03;;;3.10;;
31482;SDS011;18103;52.246;8.052;2024-01-16T14:02:38;7.07;;;2.67;;
31482;SDS011;18103;52.246;8.052;2024-01-16T14:05:10;8.47;;;3.37;;
31482;SDS011;18103;52.246;8.052;2024-01-16T14:07:40;6.57;;;3.13;;
31482;SDS011;18103;52.246;8.052;2024-01-16T14:10:14;9.03;;;2.67;;
31482;SDS011;18103;52.246;8.052;2024-01-16T14:12:40;3.20;;;1.90;;
31482;SDS011;18103;52.246;8.052;2024-01-16T14:15:10;14.90;;;3.00;;
31482;SDS011;18103;52.246;8.052;2024-01-16T14:17:48;7.83;;;2.80;;
31482;SDS011;18103;52.246;8.052;2024-01-16T14:20:14;5.33;;;2.63;;
31482;SDS011;18103;52.246;8.052;2024-01-16T14:22:46;11.87;;;2.90;;
31482;SDS011;18103;52.246;8.052;2024-01-16T14:25:14;7.07;;;2.17;;
31482;SDS011;18103;52.246;8.052;2024-01-16T14:27:44;5.07;;;2.50;;
31482;SDS011;18103;52.246;8.052;2024-01-16T14:30:14;3.63;;;2.27;;
31482;SDS011;18103;52.246;8.052;2024-01-16T14:32:43;6.73;;;2.37;;
31482;SDS011;18103;52.246;8.052;2024-01-16T14:35:11;5.93;;;2.20;;
31482;SDS011;18103;52.246;8.052;2024-01-16T14:37:38;8.33;;;3.13;;
31482;SDS011;18103;52.246;8.052;2024-01-16T14:40:06;4.50;;;2.63;;
31482;SDS011;18103;52.246;8.052;2024-01-16T14:42:33;5.53;;;2.87;;
31482;SDS011;18103;52.246;8.052;2024-01-16T14:44:59;9.63;;;3.30;;
31482;SDS011;18103;52.246;8.052;2024-01-16T14:47:27;5.87;;;2.43;;
31482;SDS011;18103;52.246;8.052;2024-01-16T14:49:52;6.03;;;2.30;;
31482;SDS011;18103;52.246;8.052;2024-01-16T14:52:21;5.63;;;2.43;;
31482;SDS011;18103;52.246;8.052;2024-01-16T14:54:47;7.23;;;3.70;;
31482;SDS011;18103;52.246;8.052;2024-01-16T14:57:13;8.07;;;3.17;;
31482;SDS011;18103;52.246;8.052;2024-01-16T14:59:39;5.10;;;2.67;;
31482;SDS011;18103;52.246;8.052;2024-01-16T15:02:04;4.27;;;2.40;;
31482;SDS011;18103;52.246;8.052;2024-01-16T15:04:37;8.57;;;3.00;;